createdAt,value
2022-09-12T00:00:31.600Z,993.64
2022-09-12T00:01:30.630Z,993.61
2022-09-12T00:02:30.607Z,993.64
2022-09-12T00:03:30.589Z,993.58
2022-09-12T00:04:30.549Z,993.58
2022-09-12T00:05:30.528Z,993.58
2022-09-12T00:06:30.529Z,993.57
2022-09-12T00:07:30.530Z,993.53
2022-09-12T00:08:30.529Z,993.52
2022-09-12T00:09:30.556Z,993.52
2022-09-12T00:10:30.507Z,993.56
2022-09-12T00:11:30.479Z,993.50
2022-09-12T00:12:30.449Z,993.55
2022-09-12T00:13:30.639Z,993.54
2022-09-12T00:14:30.449Z,993.55
2022-09-12T00:15:30.447Z,993.53
2022-09-12T00:16:30.606Z,993.52
2022-09-12T00:17:30.486Z,993.55
2022-09-12T00:18:30.390Z,993.49
2022-09-12T00:19:30.349Z,993.53
2022-09-12T00:20:30.487Z,993.52
2022-09-12T00:21:30.319Z,993.48
2022-09-12T00:22:30.369Z,993.47
2022-09-12T00:23:30.338Z,993.46
2022-09-12T00:24:30.350Z,993.44
2022-09-12T00:25:30.267Z,993.43
2022-09-12T00:26:30.272Z,993.42
2022-09-12T00:27:30.257Z,993.43
2022-09-12T00:28:30.300Z,993.42
2022-09-12T00:29:30.219Z,993.40
2022-09-12T00:30:30.208Z,993.43
2022-09-12T00:31:30.277Z,993.44
2022-09-12T00:32:30.178Z,993.36
2022-09-12T00:33:30.197Z,993.37
2022-09-12T00:34:31.415Z,993.42
2022-09-12T00:35:30.148Z,993.42
2022-09-12T00:36:30.127Z,993.42
2022-09-12T00:37:30.146Z,993.41
2022-09-12T00:38:30.136Z,993.41
2022-09-12T00:39:30.090Z,993.44
2022-09-12T00:40:30.084Z,993.43
2022-09-12T00:41:30.088Z,993.42
2022-09-12T00:42:30.047Z,993.43
2022-09-12T00:43:30.069Z,993.42
2022-09-12T00:44:30.021Z,993.41
2022-09-12T00:45:30.076Z,993.37
2022-09-12T00:46:29.998Z,993.38
2022-09-12T00:47:30.007Z,993.33
2022-09-12T00:48:30.007Z,993.28
2022-09-12T00:49:29.969Z,993.28
2022-09-12T00:50:29.960Z,993.28
2022-09-12T00:51:29.947Z,993.33
2022-09-12T00:52:29.917Z,993.27
2022-09-12T00:53:29.936Z,993.28
2022-09-12T00:54:29.887Z,993.25
2022-09-12T00:55:29.886Z,993.24
2022-09-12T00:56:29.869Z,993.22
2022-09-12T00:57:29.861Z,993.21
2022-09-12T00:58:29.885Z,993.21
2022-09-12T00:59:29.845Z,993.25
2022-09-12T01:00:29.824Z,993.22
2022-09-12T01:01:32.618Z,993.19
2022-09-12T01:02:29.794Z,993.15
2022-09-12T01:03:29.817Z,993.18
2022-09-12T01:04:29.757Z,993.16
2022-09-12T01:05:29.825Z,993.21
2022-09-12T01:06:29.747Z,993.20
2022-09-12T01:07:29.737Z,993.17
2022-09-12T01:08:29.766Z,993.18
2022-09-12T01:09:29.704Z,993.18
2022-09-12T01:10:29.685Z,993.14
2022-09-12T01:11:29.687Z,993.15
2022-09-12T01:12:29.655Z,993.12
2022-09-12T01:13:29.674Z,993.17
2022-09-12T01:14:29.636Z,993.16
2022-09-12T01:15:29.635Z,993.13
2022-09-12T01:16:29.914Z,993.15
2022-09-12T01:17:29.620Z,993.16
2022-09-12T01:18:29.616Z,993.16
2022-09-12T01:19:29.579Z,993.17
2022-09-12T01:20:29.556Z,993.21
2022-09-12T01:21:29.545Z,993.21
2022-09-12T01:22:29.576Z,993.20
2022-09-12T01:23:29.553Z,993.20
2022-09-12T01:24:29.514Z,993.17
2022-09-12T01:25:29.495Z,993.15
2022-09-12T01:26:29.482Z,993.12
2022-09-12T01:27:29.494Z,993.14
2022-09-12T01:28:29.485Z,993.12
2022-09-12T01:29:29.467Z,993.13
2022-09-12T01:30:29.425Z,993.11
2022-09-12T01:31:29.423Z,993.16
2022-09-12T01:32:29.459Z,993.12
2022-09-12T01:33:29.421Z,993.15
2022-09-12T01:34:29.384Z,993.12
2022-09-12T01:35:29.363Z,993.16
2022-09-12T01:36:29.344Z,993.10
2022-09-12T01:37:29.364Z,993.18
2022-09-12T01:38:29.362Z,993.13
2022-09-12T01:39:29.313Z,993.10
2022-09-12T01:40:29.295Z,993.10
2022-09-12T01:41:29.293Z,993.09
2022-09-12T01:42:29.306Z,993.11
2022-09-12T01:43:29.294Z,993.08
2022-09-12T01:44:29.263Z,993.10
2022-09-12T01:45:29.314Z,993.08
2022-09-12T01:46:29.214Z,993.12
2022-09-12T01:47:29.222Z,993.13
2022-09-12T01:48:29.226Z,993.11
2022-09-12T01:49:29.184Z,993.10
2022-09-12T01:50:29.173Z,993.10
2022-09-12T01:51:29.154Z,993.10
2022-09-12T01:52:29.154Z,993.12
2022-09-12T01:53:29.160Z,993.15
2022-09-12T01:54:29.134Z,993.13
2022-09-12T01:55:29.102Z,993.14
2022-09-12T01:56:29.093Z,993.14
2022-09-12T01:57:29.092Z,993.10
2022-09-12T01:58:29.111Z,993.10
2022-09-12T01:59:29.062Z,993.10
2022-09-12T02:00:29.044Z,993.07
2022-09-12T02:01:29.074Z,993.05
2022-09-12T02:02:29.076Z,993.03
2022-09-12T02:03:29.053Z,993.03
2022-09-12T02:04:33.519Z,993.04
2022-09-12T02:05:29.973Z,993.06
2022-09-12T02:06:28.981Z,993.03
2022-09-12T02:07:28.968Z,993.01
2022-09-12T02:08:28.972Z,993.00
2022-09-12T02:09:28.921Z,992.97
2022-09-12T02:10:32.345Z,992.97
2022-09-12T02:11:28.893Z,992.99
2022-09-12T02:12:28.882Z,992.97
2022-09-12T02:13:28.893Z,992.94
2022-09-12T02:14:29.111Z,992.95
2022-09-12T02:15:28.850Z,992.93
2022-09-12T02:16:28.873Z,992.88
2022-09-12T02:17:28.827Z,992.91
2022-09-12T02:18:28.831Z,992.90
2022-09-12T02:19:28.791Z,992.87
2022-09-12T02:20:47.381Z,992.90
2022-09-12T02:21:29.788Z,992.85
2022-09-12T02:22:28.763Z,992.86
2022-09-12T02:23:28.782Z,992.90
2022-09-12T02:24:28.732Z,992.90
2022-09-12T02:25:28.713Z,992.93
2022-09-12T02:26:28.711Z,992.90
2022-09-12T02:27:28.701Z,992.90
2022-09-12T02:28:28.713Z,992.87
2022-09-12T02:29:28.662Z,992.87
2022-09-12T02:30:28.720Z,992.84
2022-09-12T02:31:28.630Z,992.83
2022-09-12T02:32:28.630Z,992.78
2022-09-12T02:33:28.633Z,992.81
2022-09-12T02:34:28.602Z,992.86
2022-09-12T02:35:29.131Z,992.81
2022-09-12T02:36:28.580Z,992.83
2022-09-12T02:37:28.560Z,992.84
2022-09-12T02:38:28.584Z,992.83
2022-09-12T02:39:28.534Z,992.81
2022-09-12T02:40:28.546Z,992.80
2022-09-12T02:41:28.510Z,992.82
2022-09-12T02:42:28.490Z,992.82
2022-09-12T02:43:28.521Z,992.83
2022-09-12T02:44:28.480Z,992.82
2022-09-12T02:45:28.495Z,992.79
2022-09-12T02:46:28.449Z,992.79
2022-09-12T02:47:28.429Z,992.80
2022-09-12T02:48:28.457Z,992.73
2022-09-12T02:49:28.397Z,992.78
2022-09-12T02:50:28.388Z,992.75
2022-09-12T02:51:28.447Z,992.72
2022-09-12T02:52:28.372Z,992.74
2022-09-12T02:53:28.378Z,992.72
2022-09-12T02:54:28.361Z,992.73
2022-09-12T02:55:28.320Z,992.71
2022-09-12T02:56:28.335Z,992.72
2022-09-12T02:57:28.388Z,992.68
2022-09-12T02:58:28.319Z,992.69
2022-09-12T02:59:28.280Z,992.70
2022-09-12T03:00:28.261Z,992.71
2022-09-12T03:01:28.384Z,992.70
2022-09-12T03:02:28.303Z,992.70
2022-09-12T03:03:28.251Z,992.72
2022-09-12T03:04:28.209Z,992.71
2022-09-12T03:05:28.278Z,992.73
2022-09-12T03:06:28.187Z,992.70
2022-09-12T03:07:28.169Z,992.68
2022-09-12T03:08:28.189Z,992.68
2022-09-12T03:09:28.140Z,992.70
2022-09-12T03:10:28.129Z,992.73
2022-09-12T03:11:28.119Z,992.75
2022-09-12T03:12:28.179Z,992.79
2022-09-12T03:13:28.118Z,992.72
2022-09-12T03:14:28.080Z,992.73
2022-09-12T03:15:28.073Z,992.73
2022-09-12T03:16:28.867Z,992.69
2022-09-12T03:17:28.040Z,992.68
2022-09-12T03:18:28.118Z,992.69
2022-09-12T03:19:28.014Z,992.69
2022-09-12T03:20:27.999Z,992.70
2022-09-12T03:21:28.010Z,992.69
2022-09-12T03:22:28.629Z,992.72
2022-09-12T03:23:28.056Z,992.70
2022-09-12T03:24:27.949Z,992.70
2022-09-12T03:25:27.929Z,992.67
2022-09-12T03:26:27.924Z,992.74
2022-09-12T03:27:27.907Z,992.71
2022-09-12T03:28:27.944Z,992.72
2022-09-12T03:29:27.890Z,992.70
2022-09-12T03:30:27.942Z,992.74
2022-09-12T03:31:27.915Z,992.69
2022-09-12T03:32:27.838Z,992.71
2022-09-12T03:33:27.857Z,992.72
2022-09-12T03:34:27.822Z,992.67
2022-09-12T03:35:27.800Z,992.75
2022-09-12T03:36:27.787Z,992.74
2022-09-12T03:37:28.949Z,992.74
2022-09-12T03:38:28.699Z,992.77
2022-09-12T03:39:27.748Z,992.77
2022-09-12T03:40:27.750Z,992.77
2022-09-12T03:41:27.720Z,992.74
2022-09-12T03:42:27.719Z,992.77
2022-09-12T03:43:27.737Z,992.74
2022-09-12T03:44:27.688Z,992.75
2022-09-12T03:45:27.722Z,992.73
2022-09-12T03:46:27.667Z,992.75
2022-09-12T03:47:27.654Z,992.76
2022-09-12T03:48:27.668Z,992.75
2022-09-12T03:49:27.617Z,992.73
2022-09-12T03:50:27.627Z,992.71
2022-09-12T03:51:27.611Z,992.74
2022-09-12T03:52:27.595Z,992.72
2022-09-12T03:53:27.620Z,992.71
2022-09-12T03:54:27.557Z,992.69
2022-09-12T03:55:27.555Z,992.66
2022-09-12T03:56:27.539Z,992.64
2022-09-12T03:57:27.529Z,992.60
2022-09-12T03:58:27.536Z,992.64
2022-09-12T03:59:27.512Z,992.63
2022-09-12T04:00:27.476Z,992.64
2022-09-12T04:01:27.509Z,992.61
2022-09-12T04:02:27.505Z,992.66
2022-09-12T04:03:27.467Z,992.66
2022-09-12T04:04:27.427Z,992.65
2022-09-12T04:05:27.407Z,992.66
2022-09-12T04:06:27.399Z,992.67
2022-09-12T04:07:27.397Z,992.72
2022-09-12T04:08:27.406Z,992.68
2022-09-12T04:09:27.359Z,992.75
2022-09-12T04:10:27.364Z,992.67
2022-09-12T04:11:27.326Z,992.70
2022-09-12T04:12:27.327Z,992.70
2022-09-12T04:13:27.348Z,992.69
2022-09-12T04:14:27.297Z,992.70
2022-09-12T04:15:27.296Z,992.72
2022-09-12T04:16:27.339Z,992.74
2022-09-12T04:17:27.276Z,992.71
2022-09-12T04:18:27.284Z,992.67
2022-09-12T04:19:27.856Z,992.63
2022-09-12T04:20:27.164Z,992.62
2022-09-12T04:21:27.206Z,992.65
2022-09-12T04:22:27.204Z,992.66
2022-09-12T04:23:27.209Z,992.70
2022-09-12T04:24:27.139Z,992.70
2022-09-12T04:25:27.106Z,992.66
2022-09-12T04:26:27.147Z,992.68
2022-09-12T04:27:27.135Z,992.68
2022-09-12T04:28:27.167Z,992.70
2022-09-12T04:29:27.066Z,992.69
2022-09-12T04:30:27.143Z,992.70
2022-09-12T04:31:27.096Z,992.66
2022-09-12T04:32:27.145Z,992.68
2022-09-12T04:33:27.023Z,992.71
2022-09-12T04:34:26.986Z,992.68
2022-09-12T04:35:26.967Z,992.76
2022-09-12T04:36:26.957Z,992.76
2022-09-12T04:37:26.945Z,992.75
2022-09-12T04:38:26.976Z,992.76
2022-09-12T04:39:26.937Z,992.76
2022-09-12T04:40:26.907Z,992.74
2022-09-12T04:41:26.925Z,992.73
2022-09-12T04:42:26.875Z,992.72
2022-09-12T04:43:26.905Z,992.73
2022-09-12T04:44:26.865Z,992.75
2022-09-12T04:45:26.855Z,992.76
2022-09-12T04:46:26.825Z,992.79
2022-09-12T04:47:26.835Z,992.81
2022-09-12T04:48:26.825Z,992.78
2022-09-12T04:49:26.793Z,992.81
2022-09-12T04:50:26.884Z,992.80
2022-09-12T04:51:26.784Z,992.81
2022-09-12T04:52:26.843Z,992.78
2022-09-12T04:53:26.823Z,992.77
2022-09-12T04:54:26.748Z,992.76
2022-09-12T04:55:26.755Z,992.77
2022-09-12T04:56:26.705Z,992.80
2022-09-12T04:57:26.693Z,992.76
2022-09-12T04:58:26.704Z,992.79
2022-09-12T04:59:26.675Z,992.81
2022-09-12T05:00:26.635Z,992.75
2022-09-12T05:01:26.658Z,992.75
2022-09-12T05:02:26.667Z,992.78
2022-09-12T05:03:26.634Z,992.79
2022-09-12T05:04:26.591Z,992.74
2022-09-12T05:05:26.577Z,992.72
2022-09-12T05:06:26.563Z,992.72
2022-09-12T05:07:26.566Z,992.74
2022-09-12T05:08:26.564Z,992.69
2022-09-12T05:09:26.524Z,992.76
2022-09-12T05:10:26.518Z,992.72
2022-09-12T05:11:36.814Z,992.68
2022-09-12T05:12:27.486Z,992.68
2022-09-12T05:13:26.514Z,992.70
2022-09-12T05:14:26.454Z,992.68
2022-09-12T05:15:26.473Z,992.64
2022-09-12T05:16:26.491Z,992.67
2022-09-12T05:17:26.435Z,992.63
2022-09-12T05:18:26.445Z,992.66
2022-09-12T05:19:26.401Z,992.64
2022-09-12T05:20:26.384Z,992.61
2022-09-12T05:21:26.372Z,992.67
2022-09-12T05:22:26.508Z,992.63
2022-09-12T05:23:26.372Z,992.68
2022-09-12T05:24:26.346Z,992.67
2022-09-12T05:25:26.324Z,992.63
2022-09-12T05:26:26.302Z,992.69
2022-09-12T05:27:26.322Z,992.70
2022-09-12T05:28:26.312Z,992.70
2022-09-12T05:29:26.277Z,992.74
2022-09-12T05:30:26.295Z,992.73
2022-09-12T05:31:26.254Z,992.71
2022-09-12T05:32:26.234Z,992.74
2022-09-12T05:33:26.254Z,992.74
2022-09-12T05:34:26.213Z,992.72
2022-09-12T05:35:26.202Z,992.77
2022-09-12T05:36:26.172Z,992.72
2022-09-12T05:37:26.182Z,992.69
2022-09-12T05:38:26.182Z,992.73
2022-09-12T05:39:26.133Z,992.71
2022-09-12T05:40:26.129Z,992.73
2022-09-12T05:41:26.121Z,992.75
2022-09-12T05:42:26.105Z,992.76
2022-09-12T05:43:26.120Z,992.74
2022-09-12T05:44:26.099Z,992.75
2022-09-12T05:45:26.672Z,992.74
2022-09-12T05:46:26.047Z,992.72
2022-09-12T05:47:26.053Z,992.71
2022-09-12T05:48:26.063Z,992.72
2022-09-12T05:49:26.013Z,992.70
2022-09-12T05:50:26.541Z,992.74
2022-09-12T05:51:25.982Z,992.75
2022-09-12T05:52:25.963Z,992.73
2022-09-12T05:53:25.982Z,992.78
2022-09-12T05:54:30.817Z,992.77
2022-09-12T05:55:26.939Z,992.71
2022-09-12T05:56:25.921Z,992.82
2022-09-12T05:57:25.912Z,992.74
2022-09-12T05:58:25.922Z,992.80
2022-09-12T05:59:25.880Z,992.73
2022-09-12T06:00:28.350Z,992.81
2022-09-12T06:01:25.943Z,992.77
2022-09-12T06:02:25.898Z,992.79
2022-09-12T06:03:25.891Z,992.78
2022-09-12T06:04:25.812Z,992.80
2022-09-12T06:05:25.806Z,992.80
2022-09-12T06:06:25.803Z,992.80
2022-09-12T06:07:25.778Z,992.84
2022-09-12T06:08:25.781Z,992.83
2022-09-12T06:09:25.749Z,992.82
2022-09-12T06:10:25.731Z,992.79
2022-09-12T06:11:25.722Z,992.81
2022-09-12T06:12:25.707Z,992.78
2022-09-12T06:13:25.827Z,992.79
2022-09-12T06:14:25.682Z,992.77
2022-09-12T06:15:25.681Z,992.78
2022-09-12T06:16:25.667Z,992.82
2022-09-12T06:17:25.651Z,992.73
2022-09-12T06:18:25.650Z,992.82
2022-09-12T06:19:25.620Z,992.77
2022-09-12T06:20:25.602Z,992.75
2022-09-12T06:21:25.602Z,992.74
2022-09-12T06:22:25.574Z,992.73
2022-09-12T06:23:25.598Z,992.74
2022-09-12T06:24:25.551Z,992.73
2022-09-12T06:25:25.541Z,992.70
2022-09-12T06:26:25.603Z,992.74
2022-09-12T06:27:25.521Z,992.74
2022-09-12T06:28:25.534Z,992.73
2022-09-12T06:29:25.480Z,992.74
2022-09-12T06:30:25.674Z,992.73
2022-09-12T06:31:25.464Z,992.71
2022-09-12T06:32:25.450Z,992.70
2022-09-12T06:33:25.520Z,992.72
2022-09-12T06:34:25.410Z,992.72
2022-09-12T06:35:25.408Z,992.68
2022-09-12T06:36:25.390Z,992.70
2022-09-12T06:37:25.392Z,992.64
2022-09-12T06:38:25.391Z,992.68
2022-09-12T06:39:25.350Z,992.69
2022-09-12T06:40:25.405Z,992.64
2022-09-12T06:41:25.331Z,992.65
2022-09-12T06:42:25.323Z,992.67
2022-09-12T06:43:25.331Z,992.64
2022-09-12T06:44:25.290Z,992.65
2022-09-12T06:45:25.270Z,992.66
2022-09-12T06:46:25.262Z,992.68
2022-09-12T06:47:25.261Z,992.59
2022-09-12T06:48:25.270Z,992.63
2022-09-12T06:49:25.240Z,992.60
2022-09-12T06:50:25.202Z,992.61
2022-09-12T06:51:25.199Z,992.60
2022-09-12T06:52:25.191Z,992.61
2022-09-12T06:53:25.199Z,992.57
2022-09-12T06:54:25.169Z,992.59
2022-09-12T06:55:27.755Z,992.56
2022-09-12T06:56:25.129Z,992.55
2022-09-12T06:57:25.121Z,992.59
2022-09-12T06:58:25.131Z,992.55
2022-09-12T06:59:25.094Z,992.58
2022-09-12T07:00:25.114Z,992.54
2022-09-12T07:01:25.126Z,992.54
2022-09-12T07:02:25.117Z,992.56
2022-09-12T07:03:25.060Z,992.58
2022-09-12T07:04:25.043Z,992.54
2022-09-12T07:05:25.011Z,992.51
2022-09-12T07:06:25.001Z,992.51
2022-09-12T07:07:24.999Z,992.53
2022-09-12T07:08:25.006Z,992.53
2022-09-12T07:09:24.960Z,992.55
2022-09-12T07:10:25.088Z,992.52
2022-09-12T07:11:25.020Z,992.51
2022-09-12T07:12:24.922Z,992.54
2022-09-12T07:13:24.949Z,992.53
2022-09-12T07:14:24.939Z,992.52
2022-09-12T07:15:24.887Z,992.52
2022-09-12T07:16:24.913Z,992.50
2022-09-12T07:17:24.856Z,992.58
2022-09-12T07:18:24.853Z,992.54
2022-09-12T07:19:24.868Z,992.55
2022-09-12T07:20:24.815Z,992.53
2022-09-12T07:21:24.830Z,992.49
2022-09-12T07:22:24.800Z,992.53
2022-09-12T07:23:24.770Z,992.52
2022-09-12T07:24:24.789Z,992.51
2022-09-12T07:25:28.807Z,992.56
2022-09-12T07:26:24.747Z,992.57
2022-09-12T07:27:24.729Z,992.56
2022-09-12T07:28:24.707Z,992.53
2022-09-12T07:29:36.570Z,992.51
2022-09-12T07:30:25.827Z,992.44
2022-09-12T07:31:24.688Z,992.42
2022-09-12T07:32:24.659Z,992.44
2022-09-12T07:33:24.650Z,992.44
2022-09-12T07:34:24.661Z,992.39
2022-09-12T07:35:24.646Z,992.44
2022-09-12T07:36:24.602Z,992.41
2022-09-12T07:37:24.631Z,992.43
2022-09-12T07:38:24.589Z,992.42
2022-09-12T07:39:24.620Z,992.43
2022-09-12T07:40:24.551Z,992.45
2022-09-12T07:41:24.580Z,992.45
2022-09-12T07:42:24.539Z,992.47
2022-09-12T07:43:24.518Z,992.43
2022-09-12T07:44:24.529Z,992.40
2022-09-12T07:45:24.490Z,992.40
2022-09-12T07:46:24.469Z,992.42
2022-09-12T07:47:24.470Z,992.44
2022-09-12T07:48:24.450Z,992.43
2022-09-12T07:49:24.470Z,992.42
2022-09-12T07:50:24.450Z,992.45
2022-09-12T07:51:24.410Z,992.42
2022-09-12T07:52:24.399Z,992.45
2022-09-12T07:53:24.627Z,992.41
2022-09-12T07:54:24.422Z,992.49
2022-09-12T07:55:24.441Z,992.45
2022-09-12T07:56:29.353Z,992.47
2022-09-12T07:57:25.341Z,992.49
2022-09-12T07:58:24.401Z,992.53
2022-09-12T07:59:48.469Z,992.55
2022-09-12T08:00:25.291Z,992.51
2022-09-12T08:01:24.412Z,992.47
2022-09-12T08:02:24.282Z,992.46
2022-09-12T08:03:24.290Z,992.49
2022-09-12T08:04:24.240Z,992.50
2022-09-12T08:05:24.349Z,992.52
2022-09-12T08:06:24.266Z,992.48
2022-09-12T08:07:24.230Z,992.48
2022-09-12T08:08:24.249Z,992.51
2022-09-12T08:09:24.180Z,992.52
2022-09-12T08:10:24.162Z,992.51
2022-09-12T08:11:24.150Z,992.56
2022-09-12T08:12:24.230Z,992.52
2022-09-12T08:13:24.232Z,992.50
2022-09-12T08:14:24.111Z,992.57
2022-09-12T08:15:24.140Z,992.52
2022-09-12T08:16:24.092Z,992.48
2022-09-12T08:17:24.108Z,992.46
2022-09-12T08:18:24.080Z,992.45
2022-09-12T08:19:24.059Z,992.49
2022-09-12T08:20:28.127Z,992.45
2022-09-12T08:21:24.050Z,992.45
2022-09-12T08:22:24.001Z,992.49
2022-09-12T08:23:24.029Z,992.49
2022-09-12T08:24:24.045Z,992.54
2022-09-12T08:25:23.981Z,992.52
2022-09-12T08:26:23.949Z,992.54
2022-09-12T08:27:23.944Z,992.57
2022-09-12T08:28:23.960Z,992.63
2022-09-12T08:29:24.000Z,992.54
2022-09-12T08:30:23.910Z,992.52
2022-09-12T08:31:23.933Z,992.52
2022-09-12T08:32:23.873Z,992.50
2022-09-12T08:33:23.987Z,992.56
2022-09-12T08:34:23.900Z,992.52
2022-09-12T08:35:23.868Z,992.52
2022-09-12T08:36:23.820Z,992.58
2022-09-12T08:37:23.811Z,992.58
2022-09-12T08:38:23.852Z,992.53
2022-09-12T08:39:23.780Z,992.53
2022-09-12T08:40:23.768Z,992.51
2022-09-12T08:41:23.768Z,992.55
2022-09-12T08:42:23.933Z,992.48
2022-09-12T08:43:23.776Z,992.54
2022-09-12T08:44:23.740Z,992.52
2022-09-12T08:45:23.708Z,992.52
2022-09-12T08:46:23.745Z,992.49
2022-09-12T08:47:23.680Z,992.53
2022-09-12T08:48:23.702Z,992.51
2022-09-12T08:49:23.741Z,992.49
2022-09-12T08:50:23.653Z,992.48
2022-09-12T08:51:23.623Z,992.47
2022-09-12T08:52:23.612Z,992.50
2022-09-12T08:53:23.601Z,992.49
2022-09-12T08:54:23.612Z,992.50
2022-09-12T08:55:23.568Z,992.48
2022-09-12T08:56:23.561Z,992.53
2022-09-12T08:57:23.549Z,992.49
2022-09-12T08:58:23.556Z,992.51
2022-09-12T08:59:23.522Z,992.52
2022-09-12T09:00:23.512Z,992.51
2022-09-12T09:01:23.544Z,992.55
2022-09-12T09:02:23.524Z,992.57
2022-09-12T09:03:23.496Z,992.57
2022-09-12T09:04:25.763Z,992.61
2022-09-12T09:05:24.432Z,992.54
2022-09-12T09:06:23.435Z,992.58
2022-09-12T09:07:23.413Z,992.57
2022-09-12T09:08:23.456Z,992.57
2022-09-12T09:09:23.386Z,992.51
2022-09-12T09:10:23.380Z,992.51
2022-09-12T09:11:23.372Z,992.52
2022-09-12T09:12:23.353Z,992.51
2022-09-12T09:13:23.363Z,992.56
2022-09-12T09:14:23.324Z,992.52
2022-09-12T09:15:23.303Z,992.53
2022-09-12T09:16:23.303Z,992.52
2022-09-12T09:17:23.292Z,992.46
2022-09-12T09:18:23.293Z,992.46
2022-09-12T09:19:23.256Z,992.46
2022-09-12T09:20:23.245Z,992.48
2022-09-12T09:21:23.223Z,992.47
2022-09-12T09:22:23.223Z,992.47
2022-09-12T09:23:23.226Z,992.47
2022-09-12T09:24:23.221Z,992.47
2022-09-12T09:25:23.264Z,992.37
2022-09-12T09:26:23.163Z,992.43
2022-09-12T09:27:39.921Z,992.42
2022-09-12T09:28:24.164Z,992.37
2022-09-12T09:29:23.123Z,992.45
2022-09-12T09:30:23.113Z,992.42
2022-09-12T09:31:23.213Z,992.41
2022-09-12T09:32:23.093Z,992.37
2022-09-12T09:33:23.099Z,992.37
2022-09-12T09:34:23.064Z,992.39
2022-09-12T09:35:23.043Z,992.40
2022-09-12T09:36:23.044Z,992.38
2022-09-12T09:37:23.026Z,992.39
2022-09-12T09:38:23.035Z,992.38
2022-09-12T09:39:23.000Z,992.36
2022-09-12T09:40:23.067Z,992.40
2022-09-12T09:41:22.974Z,992.31
2022-09-12T09:42:22.965Z,992.31
2022-09-12T09:43:22.982Z,992.32
2022-09-12T09:44:22.965Z,992.29
2022-09-12T09:45:22.917Z,992.30
2022-09-12T09:46:22.967Z,992.30
2022-09-12T09:47:22.887Z,992.27
2022-09-12T09:48:22.935Z,992.24
2022-09-12T09:49:22.868Z,992.25
2022-09-12T09:50:22.855Z,992.21
2022-09-12T09:51:22.837Z,992.26
2022-09-12T09:52:22.826Z,992.24
2022-09-12T09:53:22.842Z,992.20
2022-09-12T09:54:22.805Z,992.21
2022-09-12T09:55:22.791Z,992.18
2022-09-12T09:56:23.345Z,992.15
2022-09-12T09:57:22.758Z,992.16
2022-09-12T09:58:22.799Z,992.17
2022-09-12T09:59:22.738Z,992.17
2022-09-12T10:00:22.727Z,992.16
2022-09-12T10:01:22.730Z,992.15
2022-09-12T10:02:24.232Z,992.13
2022-09-12T10:03:22.717Z,992.06
2022-09-12T10:04:22.686Z,992.13
2022-09-12T10:05:22.686Z,992.08
2022-09-12T10:06:22.659Z,992.10
2022-09-12T10:07:22.628Z,992.09
2022-09-12T10:08:22.658Z,992.01
2022-09-12T10:09:22.600Z,992.00
2022-09-12T10:10:22.667Z,992.02
2022-09-12T10:11:22.596Z,992.03
2022-09-12T10:12:22.573Z,992.04
2022-09-12T10:13:23.729Z,992.00
2022-09-12T10:14:22.539Z,992.02
2022-09-12T10:15:22.528Z,992.04
2022-09-12T10:16:22.533Z,992.01
2022-09-12T10:17:22.523Z,991.97
2022-09-12T10:18:22.530Z,991.97
2022-09-12T10:19:22.496Z,991.97
2022-09-12T10:20:22.523Z,991.93
2022-09-12T10:21:22.450Z,991.96
2022-09-12T10:22:22.441Z,991.90
2022-09-12T10:23:22.450Z,991.92
2022-09-12T10:24:22.421Z,991.91
2022-09-12T10:25:22.440Z,991.87
2022-09-12T10:26:22.396Z,991.86
2022-09-12T10:27:22.373Z,991.89
2022-09-12T10:28:22.410Z,991.90
2022-09-12T10:29:22.351Z,991.91
2022-09-12T10:30:22.342Z,991.89
2022-09-12T10:31:22.330Z,991.92
2022-09-12T10:32:22.323Z,991.87
2022-09-12T10:33:22.346Z,991.87
2022-09-12T10:34:22.993Z,991.87
2022-09-12T10:35:22.277Z,991.86
2022-09-12T10:36:22.262Z,991.87
2022-09-12T10:37:22.242Z,991.88
2022-09-12T10:38:22.232Z,991.87
2022-09-12T10:39:22.251Z,991.82
2022-09-12T10:40:22.287Z,991.85
2022-09-12T10:41:22.211Z,991.82
2022-09-12T10:42:23.446Z,991.83
2022-09-12T10:43:22.170Z,991.84
2022-09-12T10:44:22.184Z,991.84
2022-09-12T10:45:22.146Z,991.83
2022-09-12T10:46:22.166Z,991.82
2022-09-12T10:47:22.114Z,991.79
2022-09-12T10:48:22.104Z,991.82
2022-09-12T10:49:22.114Z,991.79
2022-09-12T10:50:23.036Z,991.74
2022-09-12T10:51:22.066Z,991.75
2022-09-12T10:52:22.066Z,991.75
2022-09-12T10:53:22.044Z,991.70
2022-09-12T10:54:22.795Z,991.71
2022-09-12T10:55:22.035Z,991.70
2022-09-12T10:56:22.006Z,991.69
2022-09-12T10:57:21.997Z,991.71
2022-09-12T10:58:21.976Z,991.69
2022-09-12T10:59:21.986Z,991.69
2022-09-12T11:00:21.956Z,991.67
2022-09-12T11:01:21.955Z,991.66
2022-09-12T11:02:22.116Z,991.63
2022-09-12T11:03:21.906Z,991.61
2022-09-12T11:04:21.927Z,991.63
2022-09-12T11:05:22.870Z,991.62
2022-09-12T11:06:21.868Z,991.62
2022-09-12T11:07:21.858Z,991.61
2022-09-12T11:08:21.838Z,991.58
2022-09-12T11:09:21.886Z,991.59
2022-09-12T11:10:21.867Z,991.55
2022-09-12T11:11:21.809Z,991.54
2022-09-12T11:12:21.808Z,991.57
2022-09-12T11:13:21.778Z,991.58
2022-09-12T11:14:21.852Z,991.51
2022-09-12T11:15:21.791Z,991.53
2022-09-12T11:16:21.762Z,991.57
2022-09-12T11:17:21.720Z,991.52
2022-09-12T11:18:21.721Z,991.51
2022-09-12T11:19:22.500Z,991.50
2022-09-12T11:20:21.718Z,991.53
2022-09-12T11:21:21.672Z,991.51
2022-09-12T11:22:21.719Z,991.49
2022-09-12T11:23:21.640Z,991.51
2022-09-12T11:24:21.712Z,991.50
2022-09-12T11:25:21.620Z,991.52
2022-09-12T11:26:21.611Z,991.47
2022-09-12T11:27:21.690Z,991.46
2022-09-12T11:28:21.623Z,991.45
2022-09-12T11:29:28.161Z,991.44
2022-09-12T11:30:21.563Z,991.44
2022-09-12T11:31:21.603Z,991.42
2022-09-12T11:32:21.532Z,991.41
2022-09-12T11:33:21.582Z,991.38
2022-09-12T11:34:21.532Z,991.33
2022-09-12T11:35:21.740Z,991.30
2022-09-12T11:36:23.284Z,991.30
2022-09-12T11:37:21.493Z,991.28
2022-09-12T11:38:21.484Z,991.28
2022-09-12T11:39:21.536Z,991.28
2022-09-12T11:40:24.269Z,991.28
2022-09-12T11:41:21.414Z,991.29
2022-09-12T11:42:21.445Z,991.31
2022-09-12T11:43:21.458Z,991.27
2022-09-12T11:44:21.405Z,991.31
2022-09-12T11:45:21.416Z,991.27
2022-09-12T11:46:22.208Z,991.27
2022-09-12T11:47:21.336Z,991.23
2022-09-12T11:48:21.369Z,991.25
2022-09-12T11:49:23.126Z,991.24
2022-09-12T11:50:21.305Z,991.23
2022-09-12T11:51:21.295Z,991.25
2022-09-12T11:52:21.276Z,991.23
2022-09-12T11:53:21.265Z,991.15
2022-09-12T11:54:21.276Z,991.12
2022-09-12T11:55:21.256Z,991.10
2022-09-12T11:56:21.228Z,991.09
2022-09-12T11:57:21.207Z,991.09
2022-09-12T11:58:21.196Z,991.06
2022-09-12T11:59:21.217Z,991.05
2022-09-12T12:00:21.180Z,991.04
2022-09-12T12:01:21.198Z,991.13
2022-09-12T12:02:21.204Z,991.13
2022-09-12T12:03:21.157Z,991.15
2022-09-12T12:04:21.150Z,991.10
2022-09-12T12:05:21.868Z,991.13
2022-09-12T12:06:21.131Z,991.13
2022-09-12T12:07:22.588Z,991.17
2022-09-12T12:08:21.076Z,991.10
2022-09-12T12:09:21.088Z,991.13
2022-09-12T12:10:21.049Z,991.06
2022-09-12T12:11:21.029Z,991.07
2022-09-12T12:12:21.025Z,991.08
2022-09-12T12:13:21.002Z,991.07
2022-09-12T12:14:21.020Z,991.07
2022-09-12T12:15:20.971Z,991.06
2022-09-12T12:16:21.053Z,991.01
2022-09-12T12:17:20.960Z,991.01
2022-09-12T12:18:21.024Z,990.95
2022-09-12T12:19:20.951Z,990.95
2022-09-12T12:20:20.911Z,990.93
2022-09-12T12:21:20.898Z,990.93
2022-09-12T12:22:20.883Z,990.89
2022-09-12T12:23:20.872Z,990.91
2022-09-12T12:24:20.891Z,990.89
2022-09-12T12:25:22.354Z,990.88
2022-09-12T12:26:20.833Z,990.93
2022-09-12T12:27:20.814Z,990.94
2022-09-12T12:28:20.835Z,990.93